Marion, WI (54950)

5:38 PM CST on January 22, 2017 (GMT -0600)
Northside | | Change Station
Active Advisory: Special Statement

Elev 846 ft 44.63 °N, 88.76 °W | Updated 14 seconds ago

Overcast
Overcast
37.6 °F
Feels Like 38 °F
N
0.0
Wind Variable Wind from WNW

Today
High -- | Low -- °F
--% Chance of Precip.
Yesterday
High -- | Low -- °F
Precip. -- in
Pressure 29.67 in
Visibility 10.0 miles
Clouds Overcast 1300 ft
Windchill 38 °F
Dew Point 37 °F
Humidity 96%
Rainfall 0.00 in
Snow Depth Not available.
7:24 AM 4:50 PM
Waning Crescent, 23% visible
METAR KCLI 222335Z AUTO 00000KT 10SM OVC013 02/01 A2967 RMK AO2
Pressure 29.67 in
Visibility 10.0 miles
Clouds Overcast 1300 ft
Windchill 38 °F
Dew Point 37 °F
Humidity 96%
Rainfall 0.00 in
Snow Depth Not available.
7:24 AM 4:50 PM
Waning Crescent, 23% visible
METAR KCLI 222335Z AUTO 00000KT 10SM OVC013 02/01 A2967 RMK AO2

Get Your Daily Forecast Email!

Thanks for signing up!

Be on the lookout for a verification email in your inbox.

You'll start receiving the daily forecast at 8 AM.

×

10-Day Weather Forecast

Almanac

Astronomy

Jan. 22, 2017 Rise Set
Actual Time
Civil Twilight
Nautical Twilight
Astronomical Twilight
Moon
Length of Visible Light
Length of Day
Tomorrow will be .
, % of the Moon is Illuminated

Today's Extremes

State Highs State Lows

Community

WunderPhotos

Upload Photos

1,962,540 photos uploaded!

WunderBlog® & News

Nearby

Air Quality

  Air Quality AQ Index Pollutant
Not available.

Snow Depth

Station Depth Elevation

Earthquake Activity

City Distance Mag. Time & Date
Minimum magnitude displayed is 2.5.

Coastal Water Temperatures

Place Temperature

Stations

Nearby Weather Stations

Station Location Temp. Windchill Dew Point Humidity Wind Precip. Elev Updated Type
                   

Watches & Warnings

Special Statement
Issued: 4:29 PM CST Jan. 22, 2017 – National Weather Service

... Patchy dense fog possible again tonight across northeast and
central Wisconsin...

Patchy dense fog will be possible tonight across parts of
northeast and central Wisconsin. Visibility could drop to
one-quarter mile at times.

Motorist are urged to slow down and use low beam headlights if
dense fog is encountered.


Jkl


429 PM CST sun Jan 22 2017

... Patchy dense fog possible again tonight across northeast and
central Wisconsin...

Patchy dense fog will be possible tonight across parts of
northeast and central Wisconsin. Visibility could drop to
one-quarter mile at times.

Motorist are urged to slow down and use low beam headlights if
dense fog is encountered.


Jkl

429 PM CST sun Jan 22 2017

... Patchy dense fog possible again tonight across northeast and
central Wisconsin...

Patchy dense fog will be possible tonight across parts of
northeast and central Wisconsin. Visibility could drop to
one-quarter mile at times.

Motorist are urged to slow down and use low beam headlights if
dense fog is encountered.


Jkl